Briefing drone pour Rumilly

Rechercher une autre localisation

Conditions de vol :


Nous sommes le : Lundi 21 septembre 2020
Il est 23:28 UTC (01:28 LT)

Lever de soleil : 04:55 UTC (06:55 LT)
Coucher de soleil : 18:02 UTC (20:02 LT)

Météo

L'essentiel des conditions de vol

VIGILANCE MÉTÉO FRANCE - Haute-Savoie (74)
Vigilance :
CARTE TEMSI
CARTES DES FRONTS
METAR de LFLP
LFLP 202300Z AUTO 08004KT 9999 SCT008 SCT070 16/16 Q1017

Date d'émission: 20/09/2020
Heure d'émission: 23:00 UTC
Vent: 080° pour 4 KT (7 km/h)
Visibilité horizontale: > 10 km
Plafond :
- Nuages épars à 800ft (244m)
- Nuages épars à 7000ft (2134m)
Température: 16 °C
Point de rosée: 16 °C
Humidité: 100%
Pression (QNH): 1017 hPa
TAF de LFLP
AMD LFLP 201909Z 2019/2115 CNL

Conditions prévues :

Heure d'émission : Bulletin éffectué le 20 à 19:00 UTC
Prévision : Valide du 20 a 19:00 UTC au 21 a 15:00 UTC
Nuages : à 0ft (0 m)
WEBCAM POUR RUMILLY

Réglementation

Voler en sécurité

CARTES AERONAUTIQUE 1/500.000
CARTES VAC (LFLP)
SUP AIP




Chargement des AIP...
NOTAM (RUMILLY + Terrain à proximité / FIR )




Chargement des NOTAMS...
CONTACT PREFECTURE 74


Avertissement : Les données mises à disposition sont indicatives. Oxygène Drone ne pourra être tenu responsable de dégâts causés aux biens et aux personnes.